WMKK/KUL METAR and TAF weather

Enter ICAO airport designator
Station Type Date Time Source
WMKK METAR 2021/05/11 22:30 UTC NOAA

WMKK 112230Z VRB01KT 7000 FEW008 FEW017CB 26/25 Q1006 NOSIG


Station Type Date Time Source
WMKK Decoded METAR 2021/05/11 22:30 UTC NOAA

Sepang/KL International Airport, Malaysia (WMKK) 02-44N 101-42E 22M
May 11, 2021 - 06:30 PM EDT / 2021.05.11 2230 UTC
Wind: Variable at 1 MPH (1 KT):0
Visibility: 4 mile(s):0
Sky conditions: mostly clear
Weather: Cumulonimbus clouds observed
Temperature: 78 F (26 C)
Dew Point: 77 F (25 C)
Relative Humidity: 94%
Pressure (altimeter): 29.71 in. Hg (1006 hPa)
ob: WMKK 112230Z VRB01KT 7000 FEW008 FEW017CB 26/25 Q1006 NOSIG
cycle: 22

Station Type Date Time Source
WMKK TAF 2021/05/11 18:12 UTC NOAA

TAF WMKK 111700Z 1118/1300 VRB02KT 8000 FEW017CB PROB30
TEMPO 1120/1200 5000 TSRA FEW017CB SCT020 PROB40
TEMPO 1218/1222 4000 TSRA FEW017CB SCT020

Example: see airport list